Flight Track Log - Related Links

Times and Time Zones

All times are in EDT time to prevent confusion due to time zone crossing. See the VH-LBY flight status page for this flight to view local times or setup timezone preferences in your user account.


Time Position Orientation Groundspeed Altitude Reporting Facility
EDT Latitude Longitude Course Direction KTS MPH feet Rate Location/Type
Thu 04:01:57 AM -17.4064 123.5718 247° West 300  Level Aus ATC (Calculated)
Thu 04:02:11 AM -17.4431 123.4820 67° East 100 -857 Descending Aus ATC (Calculated)
Thu 04:03:00 AM -17.4290 123.5166 247° West  Level FlightAware Approximate
Thu 04:04:00 AM -17.4821 123.3864 247° West  Level FlightAware Approximate
Thu 04:04:57 AM -17.5151 123.3052 67° East 300  Level Aus ATC (Calculated)
Thu 04:05:00 AM -17.5035 123.3337 247° West  Level FlightAware Approximate
Thu 04:06:00 AM -17.5376 123.2498 247° West  Level FlightAware Approximate
Thu 04:07:00 AM -17.5590 123.1971 247° West  Level FlightAware Approximate
Thu 04:08:00 AM -17.5804 123.1444 247° West  Level FlightAware Approximate
Thu 04:09:00 AM -17.6018 123.0917 247° West  Level FlightAware Approximate
Thu 04:09:53 AM -17.6611 122.9453 67° East 100  Level Aus ATC (Calculated)
Thu 04:10:00 AM -17.6231 123.0390 247° West  Level FlightAware Approximate
Thu 04:11:00 AM -17.6849 122.8864 247° West  Level FlightAware Approximate
Thu 04:12:00 AM -17.7062 122.8336 247° West  Level FlightAware Approximate
Thu 04:13:00 AM -17.7275 122.7808 247° West  Level FlightAware Approximate
Thu 04:14:00 AM -17.7488 122.7280 247° West  Level FlightAware Approximate
Thu 04:14:29 AM -17.7700 122.6766 268° West 100  Level Aus ATC (Calculated)
Thu 04:15:00 AM -17.7701 122.6752 247° West  Level FlightAware Approximate
Thu 04:16:00 AM -17.8022 122.5965 247° West  Level FlightAware Approximate
Thu 04:16:13 AM -17.8032 122.5925 247° West 300  Level Aus ATC (Calculated)
Thu 04:17:00 AM -17.8233 122.5436 247° West  Level FlightAware Approximate
Thu 04:18:00 AM -17.8411 122.4982 247° West  Level FlightAware Approximate
Thu 04:19:00 AM -17.8623 122.4453 247° West  Level FlightAware Approximate
Thu 04:19:48 AM -17.9106 122.3247 67° East 300  Level Aus ATC (Calculated)
Thu 04:20:00 AM -17.8835 122.3924 247° West  Level FlightAware Approximate
Thu 04:20:10 AM -17.9106 122.3247 247° West 300  Level Aus ATC (Calculated)

Login

Don't have an account? Register now (free) for customized features, flight alerts, and more!